Time;durP1;ratioP1;P1;durP2;ratioP2;P2;SDS_P1;SDS_P2;PMS_P1;PMS_P2;Temp;Humidity;BMP_temperature;BMP_pressure;BME280_temperature;BME280_humidity;BME280_pressure;Samples;Min_cycle;Max_cycle;Signal;HPM_P1;HPM_P2
2022/10/11 00:00:55;;;;;;;37.03;27.37;;;;;;;;;;5023367;28;20290;-43
2022/10/11 00:03:21;;;;;;;42.83;28.50;;;;;;;;;;5023976;28;20966;-43
2022/10/11 00:05:47;;;;;;;41.23;28.13;;;;;;;;;;5021629;28;20378;-43
2022/10/11 00:08:13;;;;;;;38.83;27.87;;;;;;;;;;5022329;28;20183;-42
2022/10/11 00:10:40;;;;;;;43.37;29.77;;;;;;;;;;5022732;28;20586;-42
2022/10/11 00:13:06;;;;;;;43.43;29.80;;;;;;;;;;5018757;28;20266;-42
2022/10/11 00:15:33;;;;;;;38.50;27.80;;;;;;;;;;5019700;28;20666;-43
2022/10/11 00:17:59;;;;;;;37.33;26.80;;;;;;;;;;5024519;28;20169;-43
2022/10/11 00:20:25;;;;;;;34.63;26.43;;;;;;;;;;5024758;28;20176;-43
2022/10/11 00:22:51;;;;;;;41.17;28.00;;;;;;;;;;5021496;28;20643;-42
2022/10/11 00:25:18;;;;;;;39.83;28.67;;;;;;;;;;5019898;28;20765;-43
2022/10/11 00:27:44;;;;;;;48.17;30.80;;;;;;;;;;5020563;28;20194;-43
2022/10/11 00:30:10;;;;;;;42.87;30.60;;;;;;;;;;5020271;28;20185;-43
2022/10/11 00:32:38;;;;;;;44.13;29.80;;;;;;;;;;5024067;28;20176;-43
2022/10/11 00:35:05;;;;;;;48.67;31.73;;;;;;;;;;5022311;28;20204;-43
2022/10/11 00:37:32;;;;;;;48.10;32.37;;;;;;;;;;5016194;28;20758;-43
2022/10/11 00:39:58;;;;;;;45.97;32.17;;;;;;;;;;5022386;28;20695;-43
2022/10/11 00:42:24;;;;;;;45.47;31.57;;;;;;;;;;5023412;28;20631;-43
2022/10/11 00:44:50;;;;;;;49.17;32.17;;;;;;;;;;5023427;28;20177;-43
2022/10/11 00:47:18;;;;;;;46.07;32.77;;;;;;;;;;5014918;28;20249;-41
2022/10/11 00:49:49;;;;;;;46.53;31.83;;;;;;;;;;5020916;28;20577;-43
2022/10/11 00:52:34;;;;;;;52.73;33.00;;;;;;;;;;5023586;28;20180;-43
2022/10/11 00:55:08;;;;;;;45.97;32.13;;;;;;;;;;5021426;28;20207;-43
2022/10/11 00:57:39;;;;;;;42.07;29.37;;;;;;;;;;5019978;28;20862;-43
2022/10/11 01:00:06;;;;;;;44.27;31.13;;;;;;;;;;5019881;28;20172;-43
2022/10/11 01:02:32;;;;;;;46.53;32.00;;;;;;;;;;5022381;28;20175;-42
2022/10/11 01:04:59;;;;;;;48.83;32.97;;;;;;;;;;5026820;28;20187;-43
2022/10/11 01:07:29;;;;;;;47.00;31.80;;;;;;;;;;5027107;28;20184;-43
2022/10/11 01:09:56;;;;;;;46.10;32.50;;;;;;;;;;5023768;28;20175;-43
2022/10/11 01:12:23;;;;;;;45.37;31.50;;;;;;;;;;5019741;28;21003;-43
2022/10/11 01:14:49;;;;;;;44.33;30.80;;;;;;;;;;5019277;28;20611;-43
2022/10/11 01:17:24;;;;;;;46.97;32.83;;;;;;;;;;5021017;28;20724;-43
2022/10/11 01:19:54;;;;;;;45.53;32.23;;;;;;;;;;5024916;28;20210;-43
2022/10/11 01:22:20;;;;;;;45.27;31.30;;;;;;;;;;5023950;28;20916;-43
2022/10/11 01:24:57;;;;;;;49.13;31.80;;;;;;;;;;5011597;28;20183;-43
2022/10/11 01:27:33;;;;;;;44.87;31.03;;;;;;;;;;5016178;28;20677;-43
2022/10/11 01:30:06;;;;;;;48.30;33.00;;;;;;;;;;5021954;28;20293;-43
2022/10/11 01:32:38;;;;;;;54.03;34.90;;;;;;;;;;5021792;28;20191;-43
2022/10/11 01:35:10;;;;;;;46.90;32.57;;;;;;;;;;5020622;28;20599;-43
2022/10/11 01:37:37;;;;;;;51.50;33.67;;;;;;;;;;5018035;28;20685;-43
2022/10/11 01:40:09;;;;;;;47.93;34.67;;;;;;;;;;5019079;28;20214;-43
2022/10/11 01:42:39;;;;;;;51.10;33.97;;;;;;;;;;5022649;28;20203;-43
2022/10/11 01:45:07;;;;;;;47.60;31.93;;;;;;;;;;5024183;28;20179;-43
2022/10/11 01:47:33;;;;;;;49.90;34.40;;;;;;;;;;5019920;28;20656;-43
2022/10/11 01:50:01;;;;;;;49.13;34.37;;;;;;;;;;5017124;28;20176;-43
2022/10/11 01:52:28;;;;;;;57.13;35.47;;;;;;;;;;5020415;28;20188;-43
2022/10/11 01:54:59;;;;;;;51.80;35.63;;;;;;;;;;5021122;28;20211;-51
2022/10/11 01:57:46;;;;;;;55.00;35.33;;;;;;;;;;5020074;28;20195;-42
2022/10/11 02:00:17;;;;;;;51.33;34.40;;;;;;;;;;5021146;28;20213;-43
2022/10/11 02:03:01;;;;;;;51.53;34.50;;;;;;;;;;5019754;28;20220;-43
2022/10/11 02:05:36;;;;;;;51.27;33.93;;;;;;;;;;5024617;28;20678;-43
2022/10/11 02:08:08;;;;;;;50.07;33.37;;;;;;;;;;5026943;28;20175;-43
2022/10/11 02:10:47;;;;;;;48.87;33.77;;;;;;;;;;5024594;28;20206;-43
2022/10/11 02:13:19;;;;;;;44.70;31.27;;;;;;;;;;5026588;28;20218;-43
2022/10/11 02:15:46;;;;;;;41.20;29.93;;;;;;;;;;5025704;28;20167;-43
2022/10/11 02:18:15;;;;;;;46.33;32.03;;;;;;;;;;5027183;28;20597;-42
2022/10/11 02:20:42;;;;;;;45.07;31.13;;;;;;;;;;5028072;28;20942;-43
2022/10/11 02:23:20;;;;;;;46.90;33.10;;;;;;;;;;5024367;28;20598;-43
2022/10/11 02:25:47;;;;;;;44.47;31.57;;;;;;;;;;5024720;28;20848;-43
2022/10/11 02:28:19;;;;;;;49.40;32.63;;;;;;;;;;5026216;28;20983;-43
2022/10/11 02:30:47;;;;;;;45.73;31.80;;;;;;;;;;5026991;28;20204;-43
2022/10/11 02:33:15;;;;;;;42.07;30.50;;;;;;;;;;5026957;28;20172;-41
2022/10/11 02:35:44;;;;;;;46.37;30.77;;;;;;;;;;5023938;28;20919;-43
2022/10/11 02:38:17;;;;;;;43.67;30.93;;;;;;;;;;5022881;28;20491;-43
2022/10/11 02:40:46;;;;;;;43.50;31.10;;;;;;;;;;5023267;28;20290;-43
2022/10/11 02:43:12;;;;;;;49.37;33.17;;;;;;;;;;5028561;28;20264;-43
2022/10/11 02:45:40;;;;;;;43.17;31.87;;;;;;;;;;5030653;28;20660;-43
2022/10/11 02:48:07;;;;;;;48.97;33.23;;;;;;;;;;5025714;28;20378;-43
2022/10/11 02:50:33;;;;;;;42.43;30.60;;;;;;;;;;5024570;28;20604;-43
2022/10/11 02:52:59;;;;;;;46.30;32.57;;;;;;;;;;5024674;28;20733;-43
2022/10/11 02:55:25;;;;;;;49.73;34.57;;;;;;;;;;5027234;28;20202;-43
2022/10/11 02:57:51;;;;;;;57.93;38.20;;;;;;;;;;5026512;28;20183;-43
2022/10/11 03:00:17;;;;;;;51.23;36.67;;;;;;;;;;5025137;28;20963;-43
2022/10/11 03:02:43;;;;;;;58.77;38.20;;;;;;;;;;5024630;28;20169;-43
2022/10/11 03:05:09;;;;;;;57.23;37.97;;;;;;;;;;5022234;28;20183;-43
2022/10/11 03:07:36;;;;;;;66.57;41.40;;;;;;;;;;5025945;28;20184;-43
2022/10/11 03:10:02;;;;;;;69.93;45.10;;;;;;;;;;5025979;28;20183;-43
2022/10/11 03:12:28;;;;;;;75.17;46.23;;;;;;;;;;5021372;28;20671;-42
2022/10/11 03:14:54;;;;;;;63.63;40.67;;;;;;;;;;5023069;28;20682;-42
2022/10/11 03:17:20;;;;;;;58.83;40.13;;;;;;;;;;5020380;28;20176;-44
2022/10/11 03:19:46;;;;;;;69.73;43.97;;;;;;;;;;5023821;28;20175;-44
2022/10/11 03:22:12;;;;;;;68.57;43.17;;;;;;;;;;5023366;28;20616;-44
2022/10/11 03:24:38;;;;;;;76.03;46.53;;;;;;;;;;5023110;28;20600;-44
2022/10/11 03:27:04;;;;;;;75.40;45.60;;;;;;;;;;5023183;28;20198;-44
2022/10/11 03:29:30;;;;;;;79.17;47.53;;;;;;;;;;5024434;28;20175;-44
2022/10/11 03:31:57;;;;;;;82.13;49.80;;;;;;;;;;5029903;28;20168;-43
2022/10/11 03:34:24;;;;;;;86.23;50.83;;;;;;;;;;5023907;28;20386;-43
2022/10/11 03:36:50;;;;;;;84.00;49.60;;;;;;;;;;5022977;28;20650;-43
2022/10/11 03:39:16;;;;;;;75.30;46.70;;;;;;;;;;5024897;28;20661;-46
2022/10/11 03:41:42;;;;;;;85.43;51.43;;;;;;;;;;5027754;28;20194;-43
2022/10/11 03:44:08;;;;;;;84.53;52.70;;;;;;;;;;5025181;28;20188;-43
2022/10/11 03:46:34;;;;;;;80.43;50.83;;;;;;;;;;5019854;28;20184;-43
2022/10/11 03:49:01;;;;;;;83.33;49.77;;;;;;;;;;5018637;28;20766;-43
2022/10/11 03:51:27;;;;;;;81.57;50.63;;;;;;;;;;5026384;28;21001;-43
2022/10/11 03:53:53;;;;;;;92.63;51.97;;;;;;;;;;5023531;28;20272;-44
2022/10/11 03:56:19;;;;;;;78.93;48.67;;;;;;;;;;5022261;28;20822;-44
2022/10/11 03:58:45;;;;;;;86.17;53.17;;;;;;;;;;5021866;28;20172;-44
2022/10/11 04:01:11;;;;;;;82.93;50.70;;;;;;;;;;5022737;28;20195;-43
2022/10/11 04:03:37;;;;;;;78.97;48.50;;;;;;;;;;5024516;28;20578;-44
2022/10/11 04:06:04;;;;;;;122.20;59.00;;;;;;;;;;5024884;28;21334;-44
2022/10/11 04:08:30;;;;;;;108.67;59.13;;;;;;;;;;5022506;28;20634;-45
2022/10/11 04:10:56;;;;;;;106.97;58.37;;;;;;;;;;5021359;28;20486;-43
2022/10/11 04:13:22;;;;;;;120.10;61.50;;;;;;;;;;5017867;28;20496;-44
2022/10/11 04:15:48;;;;;;;119.10;58.30;;;;;;;;;;5020622;28;20202;-44
2022/10/11 04:18:14;;;;;;;126.87;62.77;;;;;;;;;;5023803;28;20176;-43
2022/10/11 04:20:40;;;;;;;98.53;58.57;;;;;;;;;;5021742;28;20180;-44
2022/10/11 04:23:06;;;;;;;109.27;60.10;;;;;;;;;;5021543;28;20623;-44
2022/10/11 04:25:32;;;;;;;102.20;57.93;;;;;;;;;;5020880;28;20183;-45
2022/10/11 04:27:58;;;;;;;102.57;59.90;;;;;;;;;;5018526;28;20197;-44
2022/10/11 04:30:24;;;;;;;88.77;55.53;;;;;;;;;;5019304;28;20422;-43
2022/10/11 04:32:51;;;;;;;99.90;59.23;;;;;;;;;;5022726;28;20241;-44
2022/10/11 04:35:17;;;;;;;104.27;61.27;;;;;;;;;;5020881;28;20370;-44
2022/10/11 04:37:43;;;;;;;119.67;67.87;;;;;;;;;;5018862;28;20642;-44
2022/10/11 04:40:09;;;;;;;106.00;61.63;;;;;;;;;;5020375;28;20636;-44
2022/10/11 04:42:35;;;;;;;104.50;62.40;;;;;;;;;;5021559;28;20286;-44
2022/10/11 04:45:01;;;;;;;102.77;60.57;;;;;;;;;;5022387;28;21117;-44
2022/10/11 04:47:27;;;;;;;96.97;58.30;;;;;;;;;;5017309;28;20240;-44
2022/10/11 04:49:54;;;;;;;98.03;61.13;;;;;;;;;;5019865;28;20183;-44
2022/10/11 04:52:20;;;;;;;122.13;72.20;;;;;;;;;;5023255;28;20203;-44
2022/10/11 04:54:46;;;;;;;130.07;73.50;;;;;;;;;;5023932;28;20294;-44
2022/10/11 04:57:12;;;;;;;139.73;79.87;;;;;;;;;;5023857;28;20206;-44
2022/10/11 04:59:39;;;;;;;126.53;76.00;;;;;;;;;;5020807;28;20597;-44
2022/10/11 05:02:05;;;;;;;161.67;94.63;;;;;;;;;;5015391;28;20444;-43
2022/10/11 05:04:31;;;;;;;172.50;95.13;;;;;;;;;;5021294;28;20186;-44
2022/10/11 05:06:57;;;;;;;208.37;115.57;;;;;;;;;;5015892;28;20619;-44
2022/10/11 05:09:23;;;;;;;206.23;115.60;;;;;;;;;;5015531;28;20567;-44
2022/10/11 05:11:49;;;;;;;209.13;118.20;;;;;;;;;;5015980;28;20606;-44
2022/10/11 05:14:16;;;;;;;200.23;112.20;;;;;;;;;;5017928;28;20199;-44
2022/10/11 05:16:42;;;;;;;207.00;117.87;;;;;;;;;;5021725;28;20189;-44
2022/10/11 05:19:08;;;;;;;218.27;121.13;;;;;;;;;;5019099;28;20217;-44
2022/10/11 05:21:34;;;;;;;194.63;114.47;;;;;;;;;;5018231;28;20588;-44
2022/10/11 05:24:00;;;;;;;257.40;137.03;;;;;;;;;;5014942;28;20329;-44
2022/10/11 05:26:27;;;;;;;237.70;128.37;;;;;;;;;;5011726;28;20187;-44
2022/10/11 05:28:53;;;;;;;289.43;146.13;;;;;;;;;;5017719;28;20525;-44
2022/10/11 05:31:19;;;;;;;307.57;154.87;;;;;;;;;;5014872;28;20198;-44
2022/10/11 05:33:45;;;;;;;250.40;133.63;;;;;;;;;;5015494;28;20203;-43
2022/10/11 05:36:11;;;;;;;268.30;138.07;;;;;;;;;;5020830;28;20221;-44
2022/10/11 05:38:38;;;;;;;243.77;133.43;;;;;;;;;;5019505;28;20179;-44
2022/10/11 05:41:05;;;;;;;275.73;144.47;;;;;;;;;;5022651;28;20179;-44
2022/10/11 05:43:31;;;;;;;274.77;141.17;;;;;;;;;;5019818;28;20976;-44
2022/10/11 05:45:58;;;;;;;268.47;145.93;;;;;;;;;;5019859;28;20756;-44
2022/10/11 05:48:25;;;;;;;285.60;147.23;;;;;;;;;;5018331;28;20192;-43
2022/10/11 05:50:51;;;;;;;259.90;137.87;;;;;;;;;;5027313;28;21203;-44
2022/10/11 05:53:17;;;;;;;283.93;147.03;;;;;;;;;;5023676;28;20187;-44
2022/10/11 05:55:44;;;;;;;257.33;138.83;;;;;;;;;;5018354;28;20359;-43
2022/10/11 05:58:11;;;;;;;256.07;133.97;;;;;;;;;;5016814;28;20765;-44
2022/10/11 06:00:38;;;;;;;238.50;130.20;;;;;;;;;;5021780;28;20230;-44
2022/10/11 06:03:05;;;;;;;268.23;139.10;;;;;;;;;;5020153;28;20199;-44
2022/10/11 06:05:31;;;;;;;247.50;129.73;;;;;;;;;;5018026;28;20215;-44
2022/10/11 06:07:57;;;;;;;261.93;134.77;;;;;;;;;;5019633;28;20954;-44
2022/10/11 06:10:24;;;;;;;252.67;132.00;;;;;;;;;;5019134;28;20202;-44
2022/10/11 06:12:50;;;;;;;217.83;120.87;;;;;;;;;;5022285;28;20211;-44
2022/10/11 06:15:17;;;;;;;250.47;129.33;;;;;;;;;;5019781;28;20208;-44
2022/10/11 06:17:43;;;;;;;245.27;129.00;;;;;;;;;;5018665;28;20176;-44
2022/10/11 06:20:09;;;;;;;237.47;127.63;;;;;;;;;;5021847;28;20179;-43
2022/10/11 06:22:35;;;;;;;216.70;120.13;;;;;;;;;;5022763;28;20788;-43
2022/10/11 06:25:01;;;;;;;209.00;116.67;;;;;;;;;;5020054;28;20822;-43
2022/10/11 06:27:27;;;;;;;189.77;107.70;;;;;;;;;;5022297;28;20211;-43
2022/10/11 06:29:55;;;;;;;225.03;119.10;;;;;;;;;;5024896;28;20540;-43
2022/10/11 06:32:21;;;;;;;212.03;117.47;;;;;;;;;;5029370;28;20880;-43
2022/10/11 06:34:47;;;;;;;188.07;109.73;;;;;;;;;;5023636;28;20195;-43
2022/10/11 06:37:13;;;;;;;213.73;117.40;;;;;;;;;;5020953;28;20556;-43
2022/10/11 06:39:39;;;;;;;179.27;105.27;;;;;;;;;;5023071;28;20202;-46
2022/10/11 06:42:24;;;;;;;175.60;102.67;;;;;;;;;;5026086;28;21107;-44
2022/10/11 06:44:50;;;;;;;166.70;98.90;;;;;;;;;;5022763;28;20181;-44
2022/10/11 06:47:16;;;;;;;159.10;98.40;;;;;;;;;;5025490;28;20183;-44
2022/10/11 06:49:42;;;;;;;169.87;101.00;;;;;;;;;;5022714;28;20514;-44
2022/10/11 06:52:08;;;;;;;167.90;95.33;;;;;;;;;;5023030;28;20773;-44
2022/10/11 06:54:35;;;;;;;154.47;90.80;;;;;;;;;;5025990;28;20214;-44
2022/10/11 06:57:01;;;;;;;155.60;95.83;;;;;;;;;;5025001;28;20175;-44
2022/10/11 06:59:27;;;;;;;132.80;82.60;;;;;;;;;;5024979;28;20168;-44
2022/10/11 07:01:53;;;;;;;128.97;78.77;;;;;;;;;;5028852;28;20517;-44
2022/10/11 07:04:19;;;;;;;133.43;79.73;;;;;;;;;;5029573;28;20187;-43
2022/10/11 07:06:45;;;;;;;120.03;71.80;;;;;;;;;;5026425;28;20195;-43
2022/10/11 07:09:11;;;;;;;122.17;72.07;;;;;;;;;;5024390;28;20458;-44
2022/10/11 07:11:37;;;;;;;126.57;76.40;;;;;;;;;;5028277;28;20222;-44
2022/10/11 07:14:06;;;;;;;108.10;68.30;;;;;;;;;;5033260;28;20245;-44
2022/10/11 07:16:32;;;;;;;114.00;69.17;;;;;;;;;;5029608;28;20262;-44
2022/10/11 07:19:00;;;;;;;97.83;61.13;;;;;;;;;;5027933;28;20199;-44
2022/10/11 07:21:26;;;;;;;106.47;61.57;;;;;;;;;;5021517;28;20168;-44
2022/10/11 07:23:52;;;;;;;81.63;54.40;;;;;;;;;;5025629;28;20355;-44
2022/10/11 07:26:18;;;;;;;88.50;52.93;;;;;;;;;;5028803;28;20700;-43
2022/10/11 07:28:45;;;;;;;87.03;52.73;;;;;;;;;;5027110;28;20813;-43
2022/10/11 07:31:18;;;;;;;73.50;48.97;;;;;;;;;;5026462;28;20347;-44
2022/10/11 07:33:45;;;;;;;71.00;45.03;;;;;;;;;;5023965;28;20904;-44
2022/10/11 07:36:11;;;;;;;70.77;47.10;;;;;;;;;;5028270;28;20168;-43
2022/10/11 07:38:41;;;;;;;71.60;44.93;;;;;;;;;;5029787;28;20403;-43
2022/10/11 07:41:08;;;;;;;57.23;39.50;;;;;;;;;;5025801;28;20253;-44
2022/10/11 07:43:35;;;;;;;56.93;36.20;;;;;;;;;;5024849;28;20706;-44
2022/10/11 07:46:02;;;;;;;52.23;35.57;;;;;;;;;;5028396;28;20699;-43
2022/10/11 07:48:30;;;;;;;51.53;35.20;;;;;;;;;;5029037;28;20273;-44
2022/10/11 07:51:06;;;;;;;59.97;37.27;;;;;;;;;;5029183;28;20187;-43
2022/10/11 07:53:32;;;;;;;46.43;32.63;;;;;;;;;;5027037;28;20734;-44
2022/10/11 07:56:01;;;;;;;53.03;34.07;;;;;;;;;;5022973;28;20207;-44
2022/10/11 07:58:27;;;;;;;44.07;30.07;;;;;;;;;;5025858;28;20461;-43
2022/10/11 08:00:53;;;;;;;45.63;27.93;;;;;;;;;;5025811;28;20168;-43
2022/10/11 08:03:19;;;;;;;38.87;26.20;;;;;;;;;;5022022;28;20833;-44
2022/10/11 08:05:45;;;;;;;43.73;28.43;;;;;;;;;;5024392;28;20420;-44
2022/10/11 08:08:12;;;;;;;36.10;26.47;;;;;;;;;;5028421;28;20183;-43
2022/10/11 08:10:38;;;;;;;38.17;24.97;;;;;;;;;;5030407;28;20637;-43
2022/10/11 08:13:05;;;;;;;32.10;23.87;;;;;;;;;;5022785;28;20210;-43
2022/10/11 08:15:31;;;;;;;32.17;24.70;;;;;;;;;;5023830;28;20628;-43
2022/10/11 08:17:57;;;;;;;38.53;25.93;;;;;;;;;;5023511;28;20177;-43
2022/10/11 08:20:23;;;;;;;37.37;26.50;;;;;;;;;;5026476;28;20280;-44
2022/10/11 08:22:49;;;;;;;33.33;24.10;;;;;;;;;;5028357;28;20612;-44
2022/10/11 08:25:15;;;;;;;41.97;26.30;;;;;;;;;;5026010;28;20608;-43
2022/10/11 08:27:41;;;;;;;38.73;26.60;;;;;;;;;;5025725;28;20857;-44
2022/10/11 08:30:08;;;;;;;37.63;27.47;;;;;;;;;;5027245;28;20596;-43
2022/10/11 08:32:34;;;;;;;37.53;27.93;;;;;;;;;;5029597;28;20179;-43
2022/10/11 08:35:00;;;;;;;36.77;27.27;;;;;;;;;;5026066;28;20196;-44
2022/10/11 08:37:27;;;;;;;39.47;27.63;;;;;;;;;;5026093;28;20663;-43
2022/10/11 08:39:53;;;;;;;38.97;26.27;;;;;;;;;;5027529;28;20630;-43
2022/10/11 08:42:34;;;;;;;35.97;26.27;;;;;;;;;;5025809;28;20203;-43
2022/10/11 08:45:04;;;;;;;37.20;27.03;;;;;;;;;;5029011;28;20242;-43
2022/10/11 08:47:30;;;;;;;44.30;28.10;;;;;;;;;;5029937;28;20207;-43
2022/10/11 08:49:58;;;;;;;37.13;27.73;;;;;;;;;;5027231;28;20184;-43
2022/10/11 08:52:28;;;;;;;34.67;26.03;;;;;;;;;;5024557;28;20658;-43
2022/10/11 08:55:17;;;;;;;35.97;27.03;;;;;;;;;;5025878;28;20203;-43
2022/10/11 08:57:45;;;;;;;35.37;25.43;;;;;;;;;;5030466;28;20569;-43
2022/10/11 09:00:16;;;;;;;37.07;26.47;;;;;;;;;;5026674;28;20392;-43
2022/10/11 09:03:01;;;;;;;34.40;26.13;;;;;;;;;;5024077;28;20367;-43
2022/10/11 09:05:32;;;;;;;41.13;27.47;;;;;;;;;;5025445;28;20636;-43
2022/10/11 09:08:16;;;;;;;38.60;27.00;;;;;;;;;;5029111;28;20932;-43
2022/10/11 09:10:51;;;;;;;39.77;26.97;;;;;;;;;;5027362;28;20655;-43
2022/10/11 09:13:34;;;;;;;36.83;26.60;;;;;;;;;;5028223;28;20183;-44
2022/10/11 09:16:12;;;;;;;36.93;26.77;;;;;;;;;;5024629;28;20374;-43
2022/10/11 09:18:44;;;;;;;39.33;26.70;;;;;;;;;;5027076;28;20202;-44
2022/10/11 09:21:11;;;;;;;36.07;24.83;;;;;;;;;;5027442;28;20279;-43
2022/10/11 09:23:37;;;;;;;42.27;25.60;;;;;;;;;;5026745;28;20171;-44
2022/10/11 09:26:06;;;;;;;34.00;24.87;;;;;;;;;;5025072;28;20630;-45
2022/10/11 09:28:38;;;;;;;34.27;24.87;;;;;;;;;;5023906;28;20335;-44
2022/10/11 09:31:08;;;;;;;29.40;24.10;;;;;;;;;;5027137;28;20176;-44
2022/10/11 09:33:37;;;;;;;33.93;25.50;;;;;;;;;;5026389;28;20175;-44
2022/10/11 09:36:27;;;;;;;37.57;25.27;;;;;;;;;;5026669;28;20171;-44
2022/10/11 09:39:05;;;;;;;33.03;25.07;;;;;;;;;;5024231;28;20228;-44
2022/10/11 09:41:49;;;;;;;33.23;24.40;;;;;;;;;;5027043;28;20698;-43
2022/10/11 09:44:23;;;;;;;33.40;23.73;;;;;;;;;;5027187;28;20366;-44
2022/10/11 09:46:50;;;;;;;34.63;25.90;;;;;;;;;;5024713;28;20266;-45
2022/10/11 09:49:18;;;;;;;34.80;25.27;;;;;;;;;;5023849;28;20182;-44
2022/10/11 09:51:49;;;;;;;32.90;24.27;;;;;;;;;;5026229;28;20631;-44
2022/10/11 09:54:17;;;;;;;32.10;25.27;;;;;;;;;;5026145;28;20198;-44
2022/10/11 09:56:44;;;;;;;34.30;26.17;;;;;;;;;;5025471;28;20260;-44
2022/10/11 09:59:27;;;;;;;32.87;25.80;;;;;;;;;;5021873;28;20163;-44
2022/10/11 10:02:25;;;;;;;34.83;25.03;;;;;;;;;;5024697;28;20488;-44
2022/10/11 10:05:10;;;;;;;34.50;23.67;;;;;;;;;;5004277;28;20183;-44
2022/10/11 10:07:39;;;;;;;34.17;25.00;;;;;;;;;;5025747;28;20391;-44
2022/10/11 10:10:25;;;;;;;34.07;24.57;;;;;;;;;;5023945;28;20167;-44
2022/10/11 10:12:55;;;;;;;31.03;23.40;;;;;;;;;;5017861;28;20191;-44
2022/10/11 10:15:21;;;;;;;31.10;22.73;;;;;;;;;;5026441;28;20195;-44
2022/10/11 10:17:51;;;;;;;35.20;22.63;;;;;;;;;;5028725;28;20172;-44
2022/10/11 10:20:37;;;;;;;30.83;23.53;;;;;;;;;;5021463;28;21051;-44
2022/10/11 10:23:09;;;;;;;27.60;20.07;;;;;;;;;;5024723;28;20229;-44
2022/10/11 10:25:37;;;;;;;27.87;21.50;;;;;;;;;;5025803;28;20467;-44
2022/10/11 10:28:15;;;;;;;27.10;20.17;;;;;;;;;;5029843;28;20260;-44
2022/10/11 10:31:02;;;;;;;29.63;20.73;;;;;;;;;;5030878;28;20690;-44
2022/10/11 10:33:33;;;;;;;29.93;20.93;;;;;;;;;;5027382;28;20176;-43
2022/10/11 10:36:05;;;;;;;31.80;21.57;;;;;;;;;;5029607;28;20192;-44
2022/10/11 10:38:37;;;;;;;24.97;19.20;;;;;;;;;;5029731;28;20541;-44
2022/10/11 10:41:09;;;;;;;30.10;20.93;;;;;;;;;;5032761;28;20175;-44
2022/10/11 10:43:37;;;;;;;30.10;22.50;;;;;;;;;;5033483;28;20574;-44
2022/10/11 10:46:06;;;;;;;27.20;19.60;;;;;;;;;;5028044;28;20319;-44
2022/10/11 10:48:32;;;;;;;29.50;21.50;;;;;;;;;;5026916;28;20249;-44
2022/10/11 10:51:03;;;;;;;29.80;22.60;;;;;;;;;;5028460;28;20181;-43
2022/10/11 10:53:44;;;;;;;27.10;20.93;;;;;;;;;;5029556;28;20761;-44
2022/10/11 10:56:12;;;;;;;29.70;22.63;;;;;;;;;;5031764;28;20171;-44
2022/10/11 10:58:50;;;;;;;29.03;20.97;;;;;;;;;;5031290;28;20172;-44
2022/10/11 11:01:30;;;;;;;28.73;21.00;;;;;;;;;;5029569;28;21062;-43
2022/10/11 11:03:59;;;;;;;24.37;18.17;;;;;;;;;;5025781;28;20183;-44
2022/10/11 11:06:47;;;;;;;33.43;20.63;;;;;;;;;;5029907;28;20275;-44
2022/10/11 11:09:19;;;;;;;31.63;22.07;;;;;;;;;;5031222;28;20180;-44
2022/10/11 11:11:51;;;;;;;30.83;22.90;;;;;;;;;;5029804;28;20573;-44
2022/10/11 11:14:25;;;;;;;31.30;22.30;;;;;;;;;;5028028;28;20210;-44
2022/10/11 11:17:05;;;;;;;25.50;20.50;;;;;;;;;;5027906;28;20164;-44
2022/10/11 11:19:49;;;;;;;24.77;19.33;;;;;;;;;;5030427;28;20765;-44
2022/10/11 11:22:15;;;;;;;23.13;17.90;;;;;;;;;;5028107;28;20622;-44
2022/10/11 11:24:44;;;;;;;27.07;19.40;;;;;;;;;;5025029;28;20661;-44
2022/10/11 11:27:10;;;;;;;22.83;18.40;;;;;;;;;;5025134;28;20516;-44
2022/10/11 11:29:52;;;;;;;24.90;18.50;;;;;;;;;;5027303;28;20467;-44
2022/10/11 11:32:27;;;;;;;29.23;19.80;;;;;;;;;;5027189;28;20577;-44
2022/10/11 11:35:00;;;;;;;29.53;19.90;;;;;;;;;;5025966;28;20346;-44
2022/10/11 11:37:35;;;;;;;23.30;18.00;;;;;;;;;;5027385;28;20176;-44
2022/10/11 11:40:18;;;;;;;22.40;16.43;;;;;;;;;;5026867;28;20176;-44
2022/10/11 11:42:49;;;;;;;23.77;17.70;;;;;;;;;;5032275;28;20173;-44
2022/10/11 11:45:42;;;;;;;23.47;17.27;;;;;;;;;;5031403;28;20280;-44
2022/10/11 11:48:12;;;;;;;23.67;16.83;;;;;;;;;;5013843;28;20242;-44
2022/10/11 11:50:41;;;;;;;23.60;17.33;;;;;;;;;;5027233;28;20296;-44
2022/10/11 11:53:12;;;;;;;23.07;15.73;;;;;;;;;;5029098;28;20180;-44
2022/10/11 11:55:51;;;;;;;21.93;15.07;;;;;;;;;;5030045;28;21020;-43
2022/10/11 11:58:23;;;;;;;24.93;15.27;;;;;;;;;;5029476;28;20317;-44
2022/10/11 12:01:02;;;;;;;24.43;16.60;;;;;;;;;;5026720;28;20172;-44
2022/10/11 12:03:32;;;;;;;26.40;15.67;;;;;;;;;;5029961;28;20771;-45
2022/10/11 12:06:13;;;;;;;20.87;15.37;;;;;;;;;;5030578;28;20937;-44
2022/10/11 12:08:47;;;;;;;21.73;15.90;;;;;;;;;;5026345;28;20314;-44
2022/10/11 12:11:26;;;;;;;23.70;17.33;;;;;;;;;;5025698;28;20926;-44
2022/10/11 12:13:53;;;;;;;23.97;16.97;;;;;;;;;;5028595;28;20525;-44
2022/10/11 12:16:20;;;;;;;28.90;18.83;;;;;;;;;;5028657;28;20599;-44
2022/10/11 12:18:46;;;;;;;30.63;17.93;;;;;;;;;;5027442;28;20180;-44
2022/10/11 12:21:18;;;;;;;24.00;17.07;;;;;;;;;;5025914;28;20190;-44
2022/10/11 12:23:48;;;;;;;21.60;14.97;;;;;;;;;;5027292;28;20472;-44
2022/10/11 12:26:16;;;;;;;24.67;16.17;;;;;;;;;;5026014;28;20454;-44
2022/10/11 12:28:42;;;;;;;20.47;15.17;;;;;;;;;;5031388;28;20380;-44
2022/10/11 12:31:20;;;;;;;21.73;16.90;;;;;;;;;;5027618;28;20317;-44
2022/10/11 12:33:46;;;;;;;25.87;16.47;;;;;;;;;;5025308;28;20566;-45
2022/10/11 12:36:28;;;;;;;21.47;15.73;;;;;;;;;;5024187;28;20612;-44
2022/10/11 12:39:13;;;;;;;23.80;15.83;;;;;;;;;;5028250;28;20206;-44
2022/10/11 12:44:22;;;;;;;25.00;15.53;;;;;;;;;;5024446;28;20700;-44
2022/10/11 12:46:56;;;;;;;21.60;16.20;;;;;;;;;;5026850;28;20777;-44
2022/10/11 12:49:31;;;;;;;22.40;14.97;;;;;;;;;;5028662;28;20206;-44
2022/10/11 12:52:02;;;;;;;24.63;14.57;;;;;;;;;;5024990;28;20790;-44
2022/10/11 12:54:37;;;;;;;19.47;14.90;;;;;;;;;;5022737;28;20293;-44
2022/10/11 12:57:19;;;;;;;22.23;14.20;;;;;;;;;;5025657;28;20164;-44
2022/10/11 12:59:46;;;;;;;22.03;15.93;;;;;;;;;;5027253;28;20319;-44
2022/10/11 13:02:38;;;;;;;22.67;16.60;;;;;;;;;;5029724;28;20603;-44
2022/10/11 13:05:15;;;;;;;22.70;16.13;;;;;;;;;;5020292;28;20223;-44
2022/10/11 13:07:42;;;;;;;20.70;14.73;;;;;;;;;;5023376;28;20433;-44
2022/10/11 13:10:10;;;;;;;17.13;14.00;;;;;;;;;;5022195;28;20175;-44
2022/10/11 13:12:40;;;;;;;20.17;14.77;;;;;;;;;;5024759;28;20386;-44
2022/10/11 13:15:08;;;;;;;17.37;13.97;;;;;;;;;;5020900;28;20203;-45
2022/10/11 13:17:36;;;;;;;16.77;13.20;;;;;;;;;;5028957;28;20287;-44
2022/10/11 13:20:24;;;;;;;21.00;14.27;;;;;;;;;;5027301;28;20178;-44
2022/10/11 13:22:54;;;;;;;23.67;13.83;;;;;;;;;;5028215;28;20619;-44
2022/10/11 13:25:23;;;;;;;17.07;13.23;;;;;;;;;;5024620;28;20198;-45
2022/10/11 13:27:50;;;;;;;18.87;13.80;;;;;;;;;;5023136;28;20962;-45
2022/10/11 13:30:21;;;;;;;18.60;13.10;;;;;;;;;;5028821;28;20509;-44
2022/10/11 13:32:47;;;;;;;20.20;13.40;;;;;;;;;;5022484;28;20661;-44
2022/10/11 13:35:36;;;;;;;16.63;12.17;;;;;;;;;;5025154;28;20222;-44
2022/10/11 13:38:03;;;;;;;16.00;12.17;;;;;;;;;;5020047;28;20530;-44
2022/10/11 13:40:30;;;;;;;17.17;13.50;;;;;;;;;;5024819;28;20244;-44
2022/10/11 13:42:57;;;;;;;18.50;13.13;;;;;;;;;;5031054;28;20770;-44
2022/10/11 13:45:24;;;;;;;20.73;13.27;;;;;;;;;;5028435;28;20287;-44
2022/10/11 13:47:51;;;;;;;16.40;12.33;;;;;;;;;;5026822;28;20875;-44
2022/10/11 13:50:22;;;;;;;16.27;12.70;;;;;;;;;;5023381;28;20175;-44
2022/10/11 13:53:06;;;;;;;17.60;12.03;;;;;;;;;;5019368;28;20761;-44
2022/10/11 13:55:43;;;;;;;18.67;12.30;;;;;;;;;;5021578;28;20656;-44
2022/10/11 13:58:11;;;;;;;17.10;12.60;;;;;;;;;;5024132;28;20179;-44
2022/10/11 14:00:38;;;;;;;15.87;12.43;;;;;;;;;;5019607;28;20171;-42
2022/10/11 14:03:13;;;;;;;21.70;12.83;;;;;;;;;;5023595;28;20219;-44
2022/10/11 14:05:43;;;;;;;17.50;11.17;;;;;;;;;;5026682;28;20178;-45
2022/10/11 14:08:24;;;;;;;17.37;11.30;;;;;;;;;;5023770;28;20186;-44
2022/10/11 14:10:50;;;;;;;17.23;11.37;;;;;;;;;;5023535;28;20218;-44
2022/10/11 14:13:26;;;;;;;21.70;11.83;;;;;;;;;;5025469;28;20650;-43
2022/10/11 14:16:08;;;;;;;16.23;12.30;;;;;;;;;;5028663;28;20468;-43
2022/10/11 14:18:46;;;;;;;18.70;11.47;;;;;;;;;;5027309;28;20364;-43
2022/10/11 14:21:27;;;;;;;16.93;12.43;;;;;;;;;;5022457;28;20175;-43
2022/10/11 14:24:01;;;;;;;20.90;11.87;;;;;;;;;;5024570;28;20174;-41
2022/10/11 14:26:31;;;;;;;15.40;12.23;;;;;;;;;;5026649;28;20164;-43
2022/10/11 14:28:59;;;;;;;20.53;12.77;;;;;;;;;;5024558;28;20180;-43
2022/10/11 14:31:26;;;;;;;16.20;11.93;;;;;;;;;;5026557;28;20274;-43